Time;durP1;ratioP1;P1;durP2;ratioP2;P2;SDS_P1;SDS_P2;PMS_P1;PMS_P2;Temp;Humidity;BMP_temperature;BMP_pressure;BME280_temperature;BME280_humidity;BME280_pressure;Samples;Min_cycle;Max_cycle;Signal;HPM_P1;HPM_P2
2023/03/09 00:01:46;;;;;;;13.60;8.80;;;2.70;99.90;;;;;;5006023;28;20076;-74
2023/03/09 00:04:15;;;;;;;11.60;8.67;;;2.70;99.90;;;;;;5005982;28;20060;-74
2023/03/09 00:06:42;;;;;;;23.87;8.03;;;2.70;99.90;;;;;;5006977;28;20132;-74
2023/03/09 00:09:09;;;;;;;17.60;8.37;;;2.70;99.90;;;;;;5005688;28;20125;-73
2023/03/09 00:11:35;;;;;;;16.80;9.53;;;2.60;99.90;;;;;;5006665;28;20050;-74
2023/03/09 00:14:01;;;;;;;12.40;9.57;;;2.70;99.90;;;;;;5005498;28;20073;-74
2023/03/09 00:16:29;;;;;;;17.63;10.60;;;2.70;99.90;;;;;;5007301;28;20076;-74
2023/03/09 00:18:58;;;;;;;19.07;10.17;;;2.60;99.90;;;;;;5006049;28;20038;-74
2023/03/09 00:21:36;;;;;;;12.03;7.47;;;2.60;99.90;;;;;;5006532;28;20100;-73
2023/03/09 00:24:14;;;;;;;13.63;7.60;;;2.60;99.90;;;;;;4988915;28;20092;-73
2023/03/09 00:26:42;;;;;;;15.13;8.70;;;2.60;99.90;;;;;;5004586;28;20418;-73
2023/03/09 00:29:10;;;;;;;11.77;7.53;;;2.60;99.90;;;;;;5005325;28;20042;-73
2023/03/09 00:31:36;;;;;;;13.80;7.77;;;2.60;99.90;;;;;;5006960;28;20046;-73
2023/03/09 00:34:02;;;;;;;7.50;6.13;;;2.60;99.90;;;;;;5005212;28;20129;-74
2023/03/09 00:36:27;;;;;;;15.00;7.63;;;2.60;99.90;;;;;;5007102;28;20406;-73
2023/03/09 00:38:54;;;;;;;12.37;8.47;;;2.60;99.90;;;;;;5007018;28;20088;-73
2023/03/09 00:41:22;;;;;;;10.63;8.00;;;2.50;99.90;;;;;;5004378;28;20054;-73
2023/03/09 00:43:48;;;;;;;13.13;9.20;;;2.50;99.90;;;;;;5004419;28;20100;-74
2023/03/09 00:46:15;;;;;;;9.93;6.83;;;2.50;99.90;;;;;;5004738;28;20494;-73
2023/03/09 00:48:42;;;;;;;11.20;7.77;;;2.40;99.90;;;;;;5005336;28;20099;-73
2023/03/09 00:51:08;;;;;;;14.10;6.90;;;2.40;99.90;;;;;;5006659;28;20077;-74
2023/03/09 00:53:35;;;;;;;10.10;6.70;;;2.40;99.90;;;;;;5006132;28;20034;-74
2023/03/09 00:56:03;;;;;;;15.10;9.40;;;2.40;99.90;;;;;;5004176;28;20042;-74
2023/03/09 00:58:29;;;;;;;11.90;8.33;;;2.30;99.90;;;;;;5007052;28;20041;-74
2023/03/09 01:00:54;;;;;;;18.83;8.57;;;2.30;99.90;;;;;;5005223;28;20120;-74
2023/03/09 01:03:20;;;;;;;10.10;7.70;;;2.20;99.90;;;;;;5005714;28;20046;-74
2023/03/09 01:05:45;;;;;;;11.63;7.13;;;2.20;99.90;;;;;;5002014;28;20557;-73
2023/03/09 01:08:11;;;;;;;8.73;7.57;;;2.20;99.90;;;;;;4985038;28;20125;-74
2023/03/09 01:10:41;;;;;;;14.73;7.60;;;2.10;99.90;;;;;;4985704;28;20073;-75
2023/03/09 01:13:07;;;;;;;9.07;7.00;;;2.10;99.90;;;;;;4984899;28;20096;-74
2023/03/09 01:15:33;;;;;;;13.47;10.97;;;2.10;99.90;;;;;;4986615;28;20073;-73
2023/03/09 01:17:58;;;;;;;10.00;6.20;;;2.10;99.90;;;;;;4986908;28;20475;-74
2023/03/09 01:20:24;;;;;;;14.10;8.23;;;2.10;99.90;;;;;;4986070;28;20617;-74
2023/03/09 01:22:50;;;;;;;9.53;7.03;;;2.10;99.90;;;;;;4985688;28;20050;-73
2023/03/09 01:25:15;;;;;;;14.30;8.57;;;2.10;99.90;;;;;;4986224;28;20050;-73
2023/03/09 01:27:41;;;;;;;9.40;7.17;;;2.00;99.90;;;;;;4985270;28;20073;-73
2023/03/09 01:30:07;;;;;;;9.03;6.10;;;2.00;99.90;;;;;;4984928;28;20042;-74
2023/03/09 01:32:33;;;;;;;9.20;6.30;;;2.00;99.90;;;;;;4985017;28;20089;-74
2023/03/09 01:34:59;;;;;;;10.77;7.10;;;2.00;99.90;;;;;;4985131;28;20082;-73
2023/03/09 01:37:24;;;;;;;10.97;6.87;;;2.00;99.90;;;;;;5002528;28;20548;-73
2023/03/09 01:39:50;;;;;;;10.47;6.73;;;2.00;99.90;;;;;;5005888;28;20116;-73
2023/03/09 01:42:16;;;;;;;13.73;7.37;;;1.90;99.90;;;;;;5004557;28;20038;-73
2023/03/09 01:44:41;;;;;;;15.23;7.27;;;1.90;99.90;;;;;;4985504;28;20064;-74
2023/03/09 01:47:07;;;;;;;7.03;5.63;;;1.90;99.90;;;;;;4995164;28;20046;-74
2023/03/09 01:49:41;;;;;;;11.17;8.37;;;1.90;99.90;;;;;;4987821;28;20513;-73
2023/03/09 01:52:18;;;;;;;13.43;7.90;;;1.90;99.90;;;;;;4986973;28;20060;-73
2023/03/09 01:55:03;;;;;;;19.67;8.67;;;1.90;99.90;;;;;;4984531;28;20541;-73
2023/03/09 01:57:34;;;;;;;10.13;8.40;;;1.90;99.90;;;;;;4981788;28;20137;-73
2023/03/09 02:00:07;;;;;;;15.23;8.00;;;1.90;99.90;;;;;;5005221;28;20038;-74
2023/03/09 02:02:37;;;;;;;8.83;6.30;;;1.90;99.90;;;;;;5004414;28;20045;-74
2023/03/09 02:05:06;;;;;;;13.53;7.47;;;1.80;99.90;;;;;;5003962;28;20038;-73
2023/03/09 02:07:34;;;;;;;13.23;5.83;;;1.80;99.90;;;;;;5005139;28;20129;-74
2023/03/09 02:10:04;;;;;;;7.57;6.47;;;1.80;99.90;;;;;;5004495;28;20061;-74
2023/03/09 02:12:29;;;;;;;11.77;7.73;;;1.90;99.90;;;;;;5004927;28;20414;-74
2023/03/09 02:14:56;;;;;;;12.00;7.17;;;1.90;99.90;;;;;;5004724;28;20037;-77
2023/03/09 02:17:22;;;;;;;8.63;7.07;;;1.90;99.90;;;;;;5005176;28;20046;-74
2023/03/09 02:20:10;;;;;;;10.30;7.37;;;1.90;99.90;;;;;;5005125;28;20038;-73
2023/03/09 02:22:37;;;;;;;12.73;7.00;;;1.90;99.90;;;;;;5004400;28;20045;-74
2023/03/09 02:25:37;;;;;;;18.27;8.67;;;2.00;99.90;;;;;;5005453;28;20034;-74
2023/03/09 02:28:05;;;;;;;11.63;8.00;;;2.00;99.90;;;;;;4984428;28;20050;-73
2023/03/09 02:30:35;;;;;;;11.33;7.77;;;2.00;99.90;;;;;;4985677;28;20042;-74
2023/03/09 02:33:25;;;;;;;15.20;7.80;;;2.00;99.90;;;;;;4990038;28;20057;-74
2023/03/09 02:35:53;;;;;;;8.77;6.47;;;2.00;99.90;;;;;;4999924;28;20054;-74
2023/03/09 02:38:19;;;;;;;9.20;7.13;;;2.00;99.90;;;;;;5005152;28;20052;-74
2023/03/09 02:40:45;;;;;;;12.10;8.70;;;2.10;99.90;;;;;;5004346;28;20605;-74
2023/03/09 02:43:12;;;;;;;8.33;6.60;;;2.00;99.90;;;;;;5004832;28;20034;-73
2023/03/09 02:45:38;;;;;;;13.03;7.50;;;2.10;99.90;;;;;;5002565;28;20042;-73
2023/03/09 02:48:04;;;;;;;11.90;7.60;;;2.00;99.90;;;;;;5002619;28;20049;-74
2023/03/09 02:50:30;;;;;;;19.80;8.00;;;2.10;99.90;;;;;;5003586;28;20068;-74
2023/03/09 02:52:55;;;;;;;7.17;5.83;;;2.10;99.90;;;;;;5005504;28;20050;-74
2023/03/09 02:55:21;;;;;;;11.77;7.97;;;2.00;99.90;;;;;;5002926;28;20505;-74
2023/03/09 02:57:46;;;;;;;14.93;9.93;;;2.00;99.90;;;;;;5004598;28;20042;-74
2023/03/09 03:00:14;;;;;;;12.57;7.67;;;2.10;99.90;;;;;;4985042;28;20475;-73
2023/03/09 03:02:40;;;;;;;9.27;7.27;;;2.00;99.90;;;;;;4985345;28;20043;-74
2023/03/09 03:05:07;;;;;;;27.03;9.43;;;2.00;99.90;;;;;;4985263;28;20045;-73
2023/03/09 03:07:33;;;;;;;16.07;9.90;;;2.10;99.90;;;;;;4983987;28;20049;-73
2023/03/09 03:09:58;;;;;;;15.23;8.73;;;2.00;99.90;;;;;;4984092;28;20062;-73
2023/03/09 03:12:24;;;;;;;13.70;8.90;;;2.00;99.90;;;;;;4984918;28;20085;-73
2023/03/09 03:14:49;;;;;;;10.67;7.13;;;2.00;99.90;;;;;;4987821;28;20121;-73
2023/03/09 03:17:15;;;;;;;12.33;7.43;;;2.00;99.90;;;;;;4986915;28;20046;-74
2023/03/09 03:19:41;;;;;;;14.27;6.83;;;2.10;99.90;;;;;;4987864;28;20054;-73
2023/03/09 03:22:07;;;;;;;16.17;10.43;;;2.10;99.90;;;;;;4988369;28;20078;-74
2023/03/09 03:24:37;;;;;;;10.47;7.30;;;2.00;99.90;;;;;;4987363;28;20137;-74
2023/03/09 03:27:03;;;;;;;11.13;8.63;;;2.10;99.90;;;;;;4987130;28;20078;-74
2023/03/09 03:29:29;;;;;;;15.13;9.07;;;2.10;99.90;;;;;;4987677;28;20442;-74
2023/03/09 03:31:55;;;;;;;17.70;9.27;;;2.10;99.90;;;;;;4989015;28;20783;-73
2023/03/09 03:34:20;;;;;;;11.83;8.03;;;2.00;99.90;;;;;;4988227;28;20319;-73
2023/03/09 03:36:46;;;;;;;12.80;6.87;;;2.10;99.90;;;;;;4987128;28;20049;-74
2023/03/09 03:39:12;;;;;;;13.60;8.50;;;2.10;99.90;;;;;;4999592;28;20038;-73
2023/03/09 03:41:37;;;;;;;25.57;9.37;;;2.00;99.90;;;;;;5005747;28;20428;-74
2023/03/09 03:44:03;;;;;;;13.20;8.23;;;2.00;99.90;;;;;;5006146;28;20038;-74
2023/03/09 03:46:30;;;;;;;10.53;7.17;;;2.00;99.90;;;;;;5001570;28;20081;-74
2023/03/09 03:48:56;;;;;;;15.07;9.63;;;2.00;99.90;;;;;;5008370;28;20121;-74
2023/03/09 03:51:22;;;;;;;13.97;10.43;;;2.00;99.90;;;;;;5007116;28;20121;-74
2023/03/09 03:53:47;;;;;;;18.90;7.47;;;2.00;99.90;;;;;;5008253;28;20046;-74
2023/03/09 03:56:13;;;;;;;12.67;8.00;;;2.00;99.90;;;;;;5006091;28;20469;-74
2023/03/09 03:58:39;;;;;;;19.40;9.83;;;2.00;99.90;;;;;;5007604;28;20092;-73
2023/03/09 04:01:04;;;;;;;10.53;7.03;;;2.00;99.90;;;;;;5007505;28;20121;-73
2023/03/09 04:03:30;;;;;;;12.03;9.87;;;2.00;99.90;;;;;;5007474;28;20045;-74
2023/03/09 04:05:56;;;;;;;19.37;8.70;;;1.90;99.90;;;;;;5006232;28;20050;-73
2023/03/09 04:08:21;;;;;;;10.47;7.97;;;1.90;99.90;;;;;;5006093;28;20050;-73
2023/03/09 04:10:47;;;;;;;16.57;7.97;;;1.90;99.90;;;;;;5006096;28;20188;-74
2023/03/09 04:13:12;;;;;;;16.20;8.97;;;1.90;99.90;;;;;;5007158;28;20526;-73
2023/03/09 04:15:38;;;;;;;14.80;8.17;;;1.90;99.90;;;;;;5007297;28;20493;-74
2023/03/09 04:18:04;;;;;;;23.77;10.77;;;1.90;99.90;;;;;;5005907;28;20053;-74
2023/03/09 04:20:30;;;;;;;18.97;8.10;;;1.90;99.90;;;;;;5006086;28;20046;-74
2023/03/09 04:22:55;;;;;;;14.33;8.90;;;1.90;99.90;;;;;;5007142;28;20041;-73
2023/03/09 04:25:21;;;;;;;15.93;7.63;;;1.80;99.90;;;;;;5004322;28;20042;-73
2023/03/09 04:27:46;;;;;;;15.33;9.20;;;1.80;99.90;;;;;;4986242;28;20043;-73
2023/03/09 04:30:13;;;;;;;17.33;9.93;;;1.80;99.90;;;;;;4985948;28;20513;-73
2023/03/09 04:32:39;;;;;;;10.90;8.83;;;1.80;99.90;;;;;;4986073;28;20054;-73
2023/03/09 04:35:06;;;;;;;17.60;10.80;;;1.80;99.90;;;;;;4987337;28;20530;-73
2023/03/09 04:37:32;;;;;;;14.03;7.90;;;1.80;99.90;;;;;;4986727;28;20479;-75
2023/03/09 04:39:57;;;;;;;34.50;11.50;;;1.80;99.90;;;;;;4986188;28;20038;-74
2023/03/09 04:42:23;;;;;;;16.07;9.87;;;1.80;99.90;;;;;;4986354;28;20086;-74
2023/03/09 04:44:49;;;;;;;19.30;11.97;;;1.80;99.90;;;;;;4986878;28;20069;-75
2023/03/09 04:47:14;;;;;;;22.43;12.77;;;1.80;99.90;;;;;;4997007;28;20126;-74
2023/03/09 04:49:40;;;;;;;13.47;8.80;;;1.80;99.90;;;;;;5007219;28;20077;-74
2023/03/09 04:52:06;;;;;;;19.40;10.60;;;1.80;99.90;;;;;;5005907;28;20038;-74
2023/03/09 04:54:32;;;;;;;18.10;10.63;;;1.80;99.90;;;;;;5006561;28;20052;-75
2023/03/09 04:56:57;;;;;;;14.90;10.63;;;1.80;99.90;;;;;;5004895;28;20124;-74
2023/03/09 04:59:23;;;;;;;20.17;11.37;;;1.80;99.90;;;;;;5006139;28;20065;-74
2023/03/09 05:01:49;;;;;;;18.15;11.82;;;1.80;99.90;;;;;;5006484;28;20516;-74
2023/03/09 05:04:14;;;;;;;13.50;9.20;;;1.80;99.90;;;;;;5006394;28;20042;-75
2023/03/09 05:06:40;;;;;;;22.60;11.97;;;1.80;99.90;;;;;;5004635;28;20092;-75
2023/03/09 05:09:06;;;;;;;19.37;9.13;;;1.80;99.90;;;;;;5005942;28;20477;-75
2023/03/09 05:11:32;;;;;;;18.23;13.03;;;1.80;99.90;;;;;;5004321;28;20053;-75
2023/03/09 05:13:58;;;;;;;17.87;11.60;;;1.80;99.90;;;;;;4988637;28;20565;-74
2023/03/09 05:16:23;;;;;;;13.23;8.83;;;1.80;99.90;;;;;;5005839;28;20121;-75
2023/03/09 05:18:50;;;;;;;22.87;10.43;;;1.80;99.90;;;;;;5006311;28;20121;-75
2023/03/09 05:21:16;;;;;;;24.23;11.23;;;1.80;99.90;;;;;;5004522;28;20069;-74
2023/03/09 05:23:42;;;;;;;17.47;11.50;;;1.80;99.90;;;;;;5005826;28;20038;-75
2023/03/09 05:26:07;;;;;;;17.60;11.87;;;1.70;99.90;;;;;;5003476;28;20108;-74
2023/03/09 05:28:35;;;;;;;14.07;9.83;;;1.80;99.90;;;;;;5006087;28;20057;-75
2023/03/09 05:31:01;;;;;;;16.77;11.60;;;1.80;99.90;;;;;;5004366;28;20037;-75
2023/03/09 05:33:27;;;;;;;16.20;10.13;;;1.80;99.90;;;;;;5006205;28;20054;-74
2023/03/09 05:35:53;;;;;;;15.27;10.60;;;1.80;99.90;;;;;;4997543;28;20488;-75
2023/03/09 05:38:19;;;;;;;17.10;9.27;;;1.70;99.90;;;;;;5001658;28;20164;-75
2023/03/09 05:40:45;;;;;;;14.73;9.90;;;1.80;99.90;;;;;;5003356;28;20134;-74
2023/03/09 05:43:11;;;;;;;19.23;12.23;;;1.70;99.90;;;;;;5005350;28;20487;-75
2023/03/09 05:45:36;;;;;;;21.53;11.67;;;1.80;99.90;;;;;;5005880;28;20477;-75
2023/03/09 05:48:02;;;;;;;27.33;11.47;;;1.80;99.90;;;;;;5003707;28;20045;-74
2023/03/09 05:50:28;;;;;;;15.60;10.97;;;1.80;99.90;;;;;;5004834;28;20087;-74
2023/03/09 05:52:53;;;;;;;15.83;10.07;;;1.70;99.90;;;;;;5004451;28;20384;-74
2023/03/09 05:55:19;;;;;;;19.10;11.00;;;1.70;99.90;;;;;;5002883;28;20665;-75
2023/03/09 05:57:44;;;;;;;23.67;12.83;;;1.70;99.90;;;;;;5004387;28;20057;-75
2023/03/09 06:00:13;;;;;;;16.47;11.10;;;1.70;99.90;;;;;;5004272;28;20046;-74
2023/03/09 06:02:38;;;;;;;15.87;10.97;;;1.70;99.90;;;;;;5004293;28;20492;-74
2023/03/09 06:05:04;;;;;;;25.07;12.67;;;1.70;99.90;;;;;;5000335;28;20096;-75
2023/03/09 06:07:30;;;;;;;16.47;12.07;;;1.70;99.90;;;;;;5004893;28;20413;-75
2023/03/09 06:09:56;;;;;;;13.00;11.70;;;1.70;99.90;;;;;;4995684;28;20129;-75
2023/03/09 06:12:22;;;;;;;23.40;12.20;;;1.70;99.90;;;;;;4984753;28;20077;-75
2023/03/09 06:14:49;;;;;;;16.47;11.60;;;1.70;99.90;;;;;;5000475;28;20046;-74
2023/03/09 06:17:15;;;;;;;20.80;10.83;;;1.60;99.90;;;;;;5001607;28;20038;-74
2023/03/09 06:19:41;;;;;;;22.77;13.87;;;1.70;99.90;;;;;;4987068;28;20044;-74
2023/03/09 06:22:07;;;;;;;13.57;10.43;;;1.60;99.90;;;;;;4994647;28;20638;-75
2023/03/09 06:24:32;;;;;;;14.10;11.13;;;1.60;99.90;;;;;;5005629;28;20418;-75
2023/03/09 06:26:59;;;;;;;21.20;10.07;;;1.60;99.90;;;;;;4987320;28;20076;-74
2023/03/09 06:29:26;;;;;;;19.30;10.10;;;1.60;99.90;;;;;;4998721;28;20084;-73
2023/03/09 06:31:51;;;;;;;23.70;12.47;;;1.60;99.90;;;;;;4998536;28;20041;-73
2023/03/09 06:34:17;;;;;;;21.47;10.57;;;1.60;99.90;;;;;;5000701;28;20038;-74
2023/03/09 06:36:43;;;;;;;16.50;9.53;;;1.60;99.90;;;;;;4987534;28;20053;-73
2023/03/09 06:39:09;;;;;;;19.47;10.83;;;1.60;99.90;;;;;;4996956;28;20073;-75
2023/03/09 06:41:35;;;;;;;16.77;9.97;;;1.60;99.90;;;;;;4985085;28;20041;-73
2023/03/09 06:44:01;;;;;;;19.73;10.90;;;1.60;99.90;;;;;;5002936;28;20049;-73
2023/03/09 06:46:28;;;;;;;23.80;12.50;;;1.50;99.90;;;;;;5005130;28;20446;-72
2023/03/09 06:48:54;;;;;;;22.00;12.30;;;1.50;99.90;;;;;;5007839;28;20038;-74
2023/03/09 06:51:19;;;;;;;20.87;11.27;;;1.50;99.90;;;;;;5002981;28;20051;-76
2023/03/09 06:53:45;;;;;;;19.07;11.03;;;1.50;99.90;;;;;;4994820;28;20030;-75
2023/03/09 06:56:11;;;;;;;21.10;12.13;;;1.50;99.90;;;;;;5003300;28;20605;-75
2023/03/09 06:58:37;;;;;;;21.50;12.10;;;1.50;99.90;;;;;;4997904;28;20057;-75
2023/03/09 07:01:07;;;;;;;19.50;10.67;;;1.50;99.90;;;;;;5005612;28;20033;-75
2023/03/09 07:03:33;;;;;;;16.30;10.97;;;1.50;99.90;;;;;;5002074;28;20045;-75
2023/03/09 07:05:58;;;;;;;12.20;10.00;;;1.50;99.90;;;;;;5005982;28;20501;-75
2023/03/09 07:08:24;;;;;;;13.57;10.27;;;1.50;99.90;;;;;;4988208;28;20038;-75
2023/03/09 07:10:49;;;;;;;20.37;11.83;;;1.50;99.90;;;;;;5004719;28;20304;-75
2023/03/09 07:13:15;;;;;;;14.70;10.33;;;1.50;99.90;;;;;;5005625;28;20128;-74
2023/03/09 07:15:41;;;;;;;15.50;9.27;;;1.50;99.90;;;;;;5000565;28;20486;-78
2023/03/09 07:18:07;;;;;;;21.33;13.13;;;1.60;99.90;;;;;;5005270;28;20050;-76
2023/03/09 07:20:33;;;;;;;13.17;11.77;;;1.60;99.90;;;;;;5004311;28;20367;-77
2023/03/09 07:22:58;;;;;;;19.93;12.37;;;1.60;99.90;;;;;;5007459;28;20046;-77
2023/03/09 07:25:24;;;;;;;17.63;10.23;;;1.60;99.90;;;;;;4999669;28;20081;-77
2023/03/09 07:27:50;;;;;;;20.60;11.80;;;1.60;99.90;;;;;;4993573;28;20058;-76
2023/03/09 07:30:16;;;;;;;13.33;9.50;;;1.70;99.90;;;;;;5006913;28;20046;-77
2023/03/09 07:32:41;;;;;;;15.10;12.03;;;1.70;99.90;;;;;;5006216;28;20159;-77
2023/03/09 07:35:07;;;;;;;18.53;10.60;;;1.70;99.90;;;;;;5006448;28;20045;-79
2023/03/09 07:37:33;;;;;;;25.60;13.30;;;1.70;99.90;;;;;;5004310;28;20034;-79
2023/03/09 07:39:59;;;;;;;18.83;10.20;;;1.80;99.90;;;;;;5004952;28;20486;-78
2023/03/09 07:42:24;;;;;;;23.80;13.77;;;1.80;99.90;;;;;;5006556;28;20037;-78
2023/03/09 07:44:50;;;;;;;16.07;11.37;;;1.90;99.90;;;;;;5006269;28;20053;-78
2023/03/09 07:47:15;;;;;;;13.73;11.07;;;1.90;99.90;;;;;;4988201;28;20056;-78
2023/03/09 07:49:41;;;;;;;16.37;12.27;;;1.90;99.90;;;;;;5004764;28;20715;-78
2023/03/09 07:52:06;;;;;;;15.90;9.43;;;1.90;99.90;;;;;;5004951;28;20077;-78
2023/03/09 07:54:33;;;;;;;15.50;9.40;;;1.90;99.90;;;;;;5006002;28;20064;-78
2023/03/09 07:56:58;;;;;;;19.57;9.37;;;1.90;99.90;;;;;;5006320;28;20152;-78
2023/03/09 07:59:24;;;;;;;15.17;10.33;;;2.00;99.90;;;;;;5005039;28;20033;-78
2023/03/09 08:01:50;;;;;;;22.33;12.13;;;2.00;99.90;;;;;;5005052;28;20046;-79
2023/03/09 08:04:16;;;;;;;20.97;8.73;;;2.10;99.90;;;;;;5005675;28;20069;-79
2023/03/09 08:06:43;;;;;;;21.87;11.77;;;2.10;99.90;;;;;;5005682;28;20081;-78
2023/03/09 08:09:12;;;;;;;17.10;8.97;;;2.00;99.90;;;;;;5004235;28;20081;-78
2023/03/09 08:11:38;;;;;;;16.73;11.03;;;2.10;99.90;;;;;;5004904;28;20088;-78
2023/03/09 08:14:04;;;;;;;17.87;10.00;;;2.10;99.90;;;;;;5004772;28;20065;-79
2023/03/09 08:16:30;;;;;;;15.00;9.90;;;2.10;99.90;;;;;;5005749;28;20356;-78
2023/03/09 08:18:55;;;;;;;12.73;8.53;;;2.20;99.90;;;;;;4988670;28;20112;-78
2023/03/09 08:21:21;;;;;;;14.47;9.73;;;2.20;99.90;;;;;;5004634;28;20057;-78
2023/03/09 08:23:47;;;;;;;14.43;7.97;;;2.20;99.90;;;;;;5005235;28;20560;-79
2023/03/09 08:26:15;;;;;;;15.60;9.47;;;2.20;99.90;;;;;;4986161;28;20045;-78
2023/03/09 08:28:41;;;;;;;11.43;7.83;;;2.20;99.90;;;;;;4987826;28;20080;-78
2023/03/09 08:31:10;;;;;;;23.07;9.73;;;2.30;99.90;;;;;;5005259;28;20033;-79
2023/03/09 08:33:36;;;;;;;16.27;10.27;;;2.30;99.90;;;;;;5005786;28;20050;-78
2023/03/09 08:36:11;;;;;;;17.60;11.40;;;2.30;99.90;;;;;;5003533;28;20227;-78
2023/03/09 08:38:36;;;;;;;15.90;10.53;;;2.40;99.90;;;;;;5004116;28;20076;-78
2023/03/09 08:41:02;;;;;;;15.60;8.60;;;2.40;99.90;;;;;;5002603;28;20037;-78
2023/03/09 08:43:28;;;;;;;10.37;8.50;;;2.40;99.90;;;;;;5005315;28;20121;-78
2023/03/09 08:45:54;;;;;;;12.53;8.33;;;2.40;99.90;;;;;;5005709;28;20180;-78
2023/03/09 08:48:19;;;;;;;10.00;7.30;;;2.40;99.90;;;;;;5036515;28;20056;-78
2023/03/09 08:50:45;;;;;;;15.70;8.73;;;2.40;99.90;;;;;;5003484;28;20045;-78
2023/03/09 08:53:10;;;;;;;19.67;9.47;;;2.50;99.90;;;;;;5003911;28;20049;-78
2023/03/09 08:55:36;;;;;;;12.80;8.97;;;2.50;99.90;;;;;;4986424;28;20042;-78
2023/03/09 08:58:01;;;;;;;9.53;6.97;;;2.50;99.90;;;;;;5002994;28;20049;-78
2023/03/09 09:00:27;;;;;;;10.50;6.33;;;2.50;99.90;;;;;;5003997;28;20068;-77
2023/03/09 09:02:52;;;;;;;8.83;6.70;;;2.60;99.90;;;;;;5003258;28;20556;-78
2023/03/09 09:05:18;;;;;;;13.13;7.50;;;2.60;99.90;;;;;;4987064;28;20034;-78
2023/03/09 09:07:44;;;;;;;15.53;8.73;;;2.60;99.90;;;;;;5003530;28;20092;-77
2023/03/09 09:10:10;;;;;;;12.93;7.57;;;2.70;99.90;;;;;;5002290;28;20061;-78
2023/03/09 09:12:37;;;;;;;12.57;7.27;;;2.70;99.90;;;;;;5004565;28;20046;-78
2023/03/09 09:15:05;;;;;;;12.87;5.73;;;2.70;99.90;;;;;;5003162;28;20034;-78
2023/03/09 09:17:30;;;;;;;7.13;5.63;;;2.70;99.90;;;;;;5004847;28;20049;-78
2023/03/09 09:19:56;;;;;;;7.73;5.20;;;2.80;99.90;;;;;;5003755;28;20624;-78
2023/03/09 09:22:22;;;;;;;10.60;6.10;;;2.80;99.90;;;;;;5002810;28;20049;-78
2023/03/09 09:24:49;;;;;;;6.80;5.43;;;2.80;99.90;;;;;;5002891;28;20121;-78
2023/03/09 09:27:14;;;;;;;9.03;6.27;;;2.80;99.90;;;;;;4986409;28;20448;-78
2023/03/09 09:29:40;;;;;;;6.23;5.07;;;2.80;99.90;;;;;;5004175;28;20076;-78
2023/03/09 09:32:08;;;;;;;6.77;5.37;;;2.80;99.90;;;;;;5036170;28;20414;-78
2023/03/09 09:34:34;;;;;;;5.53;3.77;;;2.90;99.90;;;;;;5004634;28;20510;-79
2023/03/09 09:37:01;;;;;;;10.37;5.63;;;2.90;99.90;;;;;;5035829;28;20119;-78
2023/03/09 09:39:28;;;;;;;10.23;7.03;;;2.90;99.90;;;;;;4986406;28;20445;-78
2023/03/09 09:41:58;;;;;;;14.83;6.20;;;2.90;99.90;;;;;;5036102;28;20128;-78
2023/03/09 09:44:38;;;;;;;8.67;5.63;;;2.90;99.90;;;;;;5003826;28;20045;-78
2023/03/09 09:47:07;;;;;;;8.40;5.73;;;3.00;99.90;;;;;;5028307;28;20175;-78
2023/03/09 09:49:43;;;;;;;6.87;5.07;;;3.00;99.90;;;;;;5004444;28;20120;-78
2023/03/09 09:52:33;;;;;;;12.03;6.40;;;3.00;99.90;;;;;;5002840;28;20057;-78
2023/03/09 09:55:36;;;;;;;7.33;5.47;;;3.10;99.90;;;;;;5003663;28;20141;-78
2023/03/09 09:58:20;;;;;;;9.13;6.73;;;3.10;99.90;;;;;;4962044;28;20050;-78
2023/03/09 10:00:54;;;;;;;7.47;5.03;;;3.10;99.90;;;;;;4999078;28;20054;-78
2023/03/09 10:03:42;;;;;;;6.57;5.90;;;3.10;99.90;;;;;;5003758;28;20125;-78
2023/03/09 10:06:15;;;;;;;6.27;4.53;;;3.10;99.90;;;;;;4985882;28;20049;-77
2023/03/09 10:08:46;;;;;;;5.70;5.10;;;3.10;99.90;;;;;;5003971;28;20042;-78
2023/03/09 10:11:21;;;;;;;9.57;5.77;;;3.20;99.90;;;;;;5001754;28;20046;-78
2023/03/09 10:13:50;;;;;;;6.57;4.60;;;3.20;99.90;;;;;;5002404;28;20057;-78
2023/03/09 10:16:23;;;;;;;12.10;6.43;;;3.30;99.90;;;;;;5001952;28;20486;-78
2023/03/09 10:18:55;;;;;;;8.27;6.40;;;3.40;99.90;;;;;;5003761;28;20062;-78
2023/03/09 10:21:28;;;;;;;9.60;6.57;;;3.40;99.90;;;;;;5003876;28;20041;-77
2023/03/09 10:23:56;;;;;;;10.13;6.45;;;3.50;99.90;;;;;;5007888;28;20096;-78
2023/03/09 10:26:45;;;;;;;7.03;6.07;;;3.60;99.90;;;;;;5006677;28;20034;-78
2023/03/09 10:29:19;;;;;;;12.10;6.40;;;3.60;99.90;;;;;;5006256;28;20092;-78
2023/03/09 10:32:04;;;;;;;9.47;5.40;;;3.70;99.90;;;;;;5007400;28;20042;-78
2023/03/09 10:34:39;;;;;;;7.50;5.38;;;3.70;99.90;;;;;;5006761;28;20453;-79
2023/03/09 10:37:22;;;;;;;6.22;4.60;;;3.70;99.90;;;;;;5005970;28;20065;-78
2023/03/09 10:39:47;;;;;;;4.95;4.45;;;3.80;99.90;;;;;;5007209;28;20152;-78
2023/03/09 10:42:25;;;;;;;8.48;4.85;;;3.80;99.90;;;;;;5006918;28;20759;-78
2023/03/09 10:45:07;;;;;;;8.02;6.00;;;3.90;99.90;;;;;;5006039;28;20490;-78
2023/03/09 10:48:09;;;;;;;7.18;5.80;;;3.90;99.90;;;;;;5006179;28;20048;-78
2023/03/09 10:50:45;;;;;;;8.65;4.57;;;3.90;99.90;;;;;;5007363;28;20034;-78
2023/03/09 10:53:43;;;;;;;9.02;5.95;;;4.00;99.90;;;;;;5005876;28;20045;-78
2023/03/09 10:56:15;;;;;;;7.70;4.45;;;4.00;99.90;;;;;;5006200;28;20088;-79
2023/03/09 10:58:41;;;;;;;4.80;4.27;;;4.00;99.90;;;;;;5039470;28;20046;-78
2023/03/09 11:01:12;;;;;;;6.65;4.75;;;3.90;99.90;;;;;;5005406;28;20072;-78
2023/03/09 11:03:41;;;;;;;9.13;5.40;;;3.90;99.90;;;;;;4989870;28;20522;-79
2023/03/09 11:06:15;;;;;;;9.40;6.22;;;4.00;99.90;;;;;;5006743;28;20096;-78
2023/03/09 11:08:44;;;;;;;7.70;5.55;;;4.00;99.90;;;;;;4989240;28;20056;-78
2023/03/09 11:11:28;;;;;;;5.88;3.88;;;4.00;99.90;;;;;;5006084;28;20050;-78
2023/03/09 11:13:54;;;;;;;8.02;4.45;;;4.00;99.90;;;;;;4989247;28;20049;-78
2023/03/09 11:16:36;;;;;;;8.02;5.18;;;4.10;99.90;;;;;;5004992;28;20235;-78
2023/03/09 11:19:17;;;;;;;6.25;5.63;;;4.10;99.90;;;;;;5006379;28;20045;-78
2023/03/09 11:22:01;;;;;;;6.93;5.25;;;4.10;99.90;;;;;;5005470;28;20107;-79
2023/03/09 11:24:39;;;;;;;10.75;5.38;;;4.20;99.90;;;;;;5005018;28;20449;-78
2023/03/09 11:27:28;;;;;;;6.93;4.70;;;4.20;99.90;;;;;;5038291;28;20046;-79
2023/03/09 11:30:01;;;;;;;18.48;5.72;;;4.30;99.90;;;;;;5038121;28;20428;-78
2023/03/09 11:32:27;;;;;;;5.88;4.63;;;4.30;99.90;;;;;;4988147;28;20129;-78
2023/03/09 11:34:53;;;;;;;5.55;4.68;;;4.40;99.90;;;;;;5006644;28;20446;-78
2023/03/09 11:37:30;;;;;;;8.40;5.60;;;4.40;99.90;;;;;;5006143;28;20092;-77
2023/03/09 11:40:10;;;;;;;6.72;5.63;;;4.40;99.90;;;;;;5006097;28;20045;-78
2023/03/09 11:43:09;;;;;;;7.03;6.18;;;4.40;99.90;;;;;;5006610;28;20034;-78
2023/03/09 11:45:37;;;;;;;7.75;5.85;;;4.50;99.90;;;;;;5015858;28;20152;-78
2023/03/09 11:48:24;;;;;;;11.77;5.90;;;4.50;99.90;;;;;;5006102;28;20089;-78
2023/03/09 11:51:08;;;;;;;7.63;6.53;;;4.50;99.90;;;;;;5006308;28;20549;-78
2023/03/09 11:53:37;;;;;;;10.00;4.80;;;4.60;99.90;;;;;;5005949;28;20053;-79
2023/03/09 11:56:20;;;;;;;7.18;4.18;;;4.60;99.90;;;;;;5005146;28;20042;-78
2023/03/09 11:58:51;;;;;;;6.97;5.25;;;4.70;99.90;;;;;;4988441;28;20056;-79
2023/03/09 12:01:33;;;;;;;7.77;4.87;;;4.70;99.90;;;;;;5004272;28;20268;-79
2023/03/09 12:04:05;;;;;;;6.30;4.82;;;4.80;99.90;;;;;;4982054;28;20054;-78
2023/03/09 12:06:44;;;;;;;6.20;4.22;;;4.80;99.90;;;;;;4995089;28;20042;-79
2023/03/09 12:09:23;;;;;;;7.45;5.85;;;4.80;99.90;;;;;;5001824;28;20143;-77
2023/03/09 12:12:18;;;;;;;8.88;5.80;;;4.90;99.90;;;;;;4997938;28;20087;-75
2023/03/09 12:14:49;;;;;;;8.15;5.13;;;4.90;99.90;;;;;;4983640;28;20052;-77
2023/03/09 12:17:18;;;;;;;8.40;5.88;;;4.90;99.90;;;;;;4995151;28;20445;-77
2023/03/09 12:19:53;;;;;;;6.00;4.18;;;4.90;99.90;;;;;;5004906;28;20045;-77
2023/03/09 12:22:30;;;;;;;7.60;5.68;;;4.90;99.90;;;;;;5003293;28;20056;-78
2023/03/09 12:25:02;;;;;;;5.97;4.53;;;5.00;99.90;;;;;;5000007;28;20053;-76
2023/03/09 12:27:32;;;;;;;;;;;5.00;99.90;;;;;;4998975;28;20065;-78
2023/03/09 12:30:20;;;;;;;5.75;4.68;;;4.90;99.90;;;;;;4998943;28;20453;-80
2023/03/09 12:32:45;;;;;;;5.93;5.22;;;5.00;99.90;;;;;;5020983;28;20533;-78
2023/03/09 12:35:13;;;;;;;8.68;5.10;;;5.00;99.90;;;;;;4996370;28;20073;-78
2023/03/09 12:37:51;;;;;;;5.65;4.78;;;5.00;99.90;;;;;;5004538;28;20043;-78
2023/03/09 12:40:25;;;;;;;7.32;5.05;;;5.10;99.90;;;;;;5003518;28;20030;-79
2023/03/09 12:42:53;;;;;;;5.85;4.80;;;5.10;99.90;;;;;;5003424;28;20394;-77
2023/03/09 12:45:19;;;;;;;6.82;5.32;;;5.10;99.90;;;;;;5018888;28;20042;-78
2023/03/09 12:47:48;;;;;;;7.20;4.80;;;5.10;99.90;;;;;;5003040;28;20393;-81
2023/03/09 12:50:20;;;;;;;14.63;4.60;;;5.10;99.90;;;;;;4988426;28;20129;-78
2023/03/09 12:52:46;;;;;;;14.88;4.88;;;5.20;99.90;;;;;;4985699;28;20057;-78
2023/03/09 12:55:17;;;;;;;6.70;4.70;;;5.20;99.90;;;;;;4984862;28;20068;-79
2023/03/09 12:57:44;;;;;;;7.40;3.70;;;5.20;99.90;;;;;;4982755;28;20522;-79